Time;durP1;ratioP1;P1;durP2;ratioP2;P2;SDS_P1;SDS_P2;PMS_P1;PMS_P2;Temp;Humidity;BMP_temperature;BMP_pressure;BME280_temperature;BME280_humidity;BME280_pressure;Samples;Min_cycle;Max_cycle;Signal;HPM_P1;HPM_P2
2023/06/30 00:01:28;;;;;;;6.70;1.80;;;14.50;99.90;;;;;;5041411;28;20483;-82
2023/06/30 00:03:54;;;;;;;4.95;1.92;;;14.50;99.90;;;;;;5047980;28;20037;-82
2023/06/30 00:06:19;;;;;;;4.75;1.70;;;14.60;99.90;;;;;;5047070;28;20036;-83
2023/06/30 00:08:45;;;;;;;4.40;1.50;;;14.60;99.90;;;;;;5048278;28;20075;-82
2023/06/30 00:11:11;;;;;;;6.20;1.73;;;14.50;99.90;;;;;;5040638;28;20037;-82
2023/06/30 00:13:36;;;;;;;10.10;1.90;;;14.60;99.90;;;;;;5030534;28;20436;-80
2023/06/30 00:16:02;;;;;;;4.90;1.70;;;14.60;99.90;;;;;;5043402;28;20033;-83
2023/06/30 00:18:29;;;;;;;4.57;1.45;;;14.60;99.90;;;;;;5044979;28;20033;-83
2023/06/30 00:20:54;;;;;;;5.63;1.55;;;14.60;99.90;;;;;;5030977;28;20050;-81
2023/06/30 00:23:20;;;;;;;3.80;1.38;;;14.60;99.90;;;;;;5047041;28;20029;-82
2023/06/30 00:25:47;;;;;;;4.97;1.42;;;14.60;99.90;;;;;;5046908;28;20504;-81
2023/06/30 00:28:12;;;;;;;5.60;1.60;;;14.60;99.90;;;;;;5048022;28;20057;-82
2023/06/30 00:30:38;;;;;;;4.53;1.25;;;14.50;99.90;;;;;;5048639;28;20072;-81
2023/06/30 00:33:04;;;;;;;3.83;1.38;;;14.40;99.90;;;;;;5045105;28;20082;-82
2023/06/30 00:35:30;;;;;;;3.97;1.40;;;14.40;99.90;;;;;;5027772;28;20037;-82
2023/06/30 00:37:55;;;;;;;4.25;1.42;;;14.30;99.90;;;;;;5028262;28;20021;-82
2023/06/30 00:40:21;;;;;;;5.55;1.33;;;14.20;99.90;;;;;;5038725;28;20547;-82
2023/06/30 00:42:47;;;;;;;6.43;1.30;;;14.10;99.90;;;;;;5047536;28;20087;-82
2023/06/30 00:45:12;;;;;;;5.25;1.40;;;14.10;99.90;;;;;;5044921;28;20025;-82
2023/06/30 00:47:38;;;;;;;3.28;1.20;;;14.00;99.90;;;;;;5047778;28;20392;-82
2023/06/30 00:50:04;;;;;;;4.55;1.35;;;14.00;99.90;;;;;;5046751;28;20512;-81
2023/06/30 00:52:30;;;;;;;2.92;1.30;;;13.90;99.90;;;;;;5046667;28;20029;-82
2023/06/30 00:54:56;;;;;;;2.45;1.00;;;13.90;99.90;;;;;;5057137;28;20040;-82
2023/06/30 00:57:21;;;;;;;4.57;1.20;;;13.80;99.90;;;;;;5042835;28;20064;-83
2023/06/30 00:59:47;;;;;;;2.58;1.20;;;13.80;99.90;;;;;;5042940;28;20040;-83
2023/06/30 01:02:19;;;;;;;3.13;1.25;;;13.70;99.90;;;;;;5044647;28;20032;-83
2023/06/30 01:04:50;;;;;;;4.43;1.60;;;13.70;99.90;;;;;;5046581;28;20060;-81
2023/06/30 01:07:34;;;;;;;;;;;13.70;99.90;;;;;;5040133;28;20033;-83
2023/06/30 01:10:10;;;;;;;3.15;1.17;;;13.60;99.90;;;;;;5036239;28;19916;-83
2023/06/30 01:12:36;;;;;;;7.55;1.30;;;13.60;99.90;;;;;;5046219;28;20033;-82
2023/06/30 01:15:03;;;;;;;3.92;1.10;;;13.60;99.90;;;;;;5061075;28;20024;-82
2023/06/30 01:17:29;;;;;;;4.93;1.40;;;13.50;99.90;;;;;;5027033;28;20036;-82
2023/06/30 01:19:58;;;;;;;3.33;1.13;;;13.50;99.90;;;;;;5042902;28;20443;-82
2023/06/30 01:22:33;;;;;;;5.32;1.98;;;13.50;99.90;;;;;;5037943;28;20446;-81
2023/06/30 01:25:05;;;;;;;3.67;1.30;;;13.40;99.90;;;;;;5027448;28;20036;-83
2023/06/30 01:27:31;;;;;;;3.92;1.38;;;13.40;99.90;;;;;;5027724;28;20120;-82
2023/06/30 01:29:56;;;;;;;5.50;1.23;;;13.40;99.90;;;;;;5045598;28;20238;-81
2023/06/30 01:32:22;;;;;;;3.10;1.20;;;13.40;99.90;;;;;;5044559;28;20033;-83
2023/06/30 01:34:48;;;;;;;2.63;1.30;;;13.30;99.90;;;;;;5045631;28;20044;-82
2023/06/30 01:37:14;;;;;;;4.28;1.40;;;13.30;99.90;;;;;;5030554;28;20061;-83
2023/06/30 01:39:40;;;;;;;6.93;1.30;;;13.30;99.90;;;;;;5036068;28;20037;-82
2023/06/30 01:42:06;;;;;;;3.13;1.50;;;13.30;99.90;;;;;;5061260;28;20029;-82
2023/06/30 01:44:35;;;;;;;3.65;1.30;;;13.20;99.90;;;;;;5044328;28;20111;-83
2023/06/30 01:47:01;;;;;;;2.42;1.35;;;13.20;99.90;;;;;;5046136;28;20029;-82
2023/06/30 01:49:27;;;;;;;5.05;1.63;;;13.10;99.90;;;;;;5044221;28;20033;-83
2023/06/30 01:51:53;;;;;;;3.75;1.17;;;13.10;99.90;;;;;;5046110;28;20151;-82
2023/06/30 01:54:19;;;;;;;5.88;1.52;;;13.10;99.90;;;;;;5040572;28;20025;-84
2023/06/30 01:56:49;;;;;;;4.55;1.35;;;13.10;99.90;;;;;;5047802;28;20396;-82
2023/06/30 01:59:14;;;;;;;3.78;1.17;;;13.10;99.90;;;;;;5053712;28;20164;-82
2023/06/30 02:01:40;;;;;;;4.97;1.25;;;13.00;99.90;;;;;;5045226;28;20115;-82
2023/06/30 02:04:06;;;;;;;5.90;2.08;;;13.00;99.90;;;;;;5044583;28;20133;-82
2023/06/30 02:06:31;;;;;;;2.42;1.38;;;13.00;99.90;;;;;;5045385;28;20041;-82
2023/06/30 02:08:57;;;;;;;2.55;1.20;;;12.90;99.90;;;;;;5043294;28;20040;-82
2023/06/30 02:11:22;;;;;;;4.53;1.38;;;12.90;99.90;;;;;;5046065;28;20037;-82
2023/06/30 02:13:48;;;;;;;3.28;1.10;;;12.90;99.90;;;;;;5048679;28;20032;-83
2023/06/30 02:16:13;;;;;;;5.53;1.42;;;12.90;99.90;;;;;;5047425;28;20483;-83
2023/06/30 02:18:39;;;;;;;3.90;1.85;;;12.80;99.90;;;;;;5049246;28;20025;-82
2023/06/30 02:21:05;;;;;;;7.85;1.33;;;12.80;99.90;;;;;;5047752;28;20373;-82
2023/06/30 02:23:31;;;;;;;5.55;1.30;;;12.70;99.90;;;;;;5046651;28;20037;-82
2023/06/30 02:25:57;;;;;;;4.22;1.30;;;12.70;99.90;;;;;;5034642;28;20116;-82
2023/06/30 02:28:23;;;;;;;5.25;1.35;;;12.70;99.90;;;;;;5029645;28;20030;-82
2023/06/30 02:30:48;;;;;;;6.25;1.02;;;12.60;99.90;;;;;;5043665;28;20080;-83
2023/06/30 02:33:14;;;;;;;5.20;1.23;;;12.60;99.90;;;;;;5029515;28;20033;-83
2023/06/30 02:35:39;;;;;;;2.28;1.25;;;12.50;99.90;;;;;;5048328;28;20146;-83
2023/06/30 02:38:06;;;;;;;4.13;1.20;;;12.50;99.90;;;;;;5049355;28;20070;-83
2023/06/30 02:40:32;;;;;;;4.35;1.20;;;12.50;99.90;;;;;;5039874;28;20048;-82
2023/06/30 02:42:58;;;;;;;4.47;1.67;;;12.40;99.90;;;;;;5048657;28;20017;-81
2023/06/30 02:45:24;;;;;;;5.03;1.30;;;12.40;99.90;;;;;;5049028;28;20043;-83
2023/06/30 02:47:49;;;;;;;2.40;0.90;;;12.40;99.90;;;;;;5049315;28;20028;-83
2023/06/30 02:50:15;;;;;;;4.82;1.15;;;12.40;99.90;;;;;;5047565;28;20098;-83
2023/06/30 02:52:41;;;;;;;3.55;1.30;;;12.40;99.90;;;;;;5031271;28;20519;-83
2023/06/30 02:55:07;;;;;;;3.67;1.20;;;12.30;99.90;;;;;;5047612;28;20855;-82
2023/06/30 02:57:32;;;;;;;4.32;1.52;;;12.30;99.90;;;;;;5029859;28;20034;-83
2023/06/30 02:59:58;;;;;;;2.78;1.10;;;12.20;99.90;;;;;;5029258;28;20025;-82
2023/06/30 03:02:23;;;;;;;4.72;1.15;;;12.20;99.90;;;;;;5044852;28;20048;-82
2023/06/30 03:04:49;;;;;;;5.43;1.25;;;12.20;99.90;;;;;;5056516;28;20075;-83
2023/06/30 03:07:16;;;;;;;2.83;1.33;;;12.20;99.90;;;;;;5050120;28;20038;-82
2023/06/30 03:09:42;;;;;;;4.45;1.25;;;12.10;99.90;;;;;;5036395;28;20032;-83
2023/06/30 03:12:08;;;;;;;5.25;1.17;;;12.10;99.90;;;;;;5048614;28;20045;-83
2023/06/30 03:14:33;;;;;;;2.97;1.33;;;12.10;99.90;;;;;;5047255;28;20076;-82
2023/06/30 03:16:59;;;;;;;4.75;1.48;;;12.00;99.90;;;;;;5036025;28;20065;-82
2023/06/30 03:19:25;;;;;;;4.38;1.23;;;12.00;99.90;;;;;;5028311;28;20033;-82
2023/06/30 03:21:50;;;;;;;3.38;1.08;;;11.90;99.90;;;;;;5063939;28;20021;-82
2023/06/30 03:24:16;;;;;;;2.78;1.13;;;11.90;99.90;;;;;;5047424;28;20044;-83
2023/06/30 03:26:42;;;;;;;2.72;1.23;;;11.80;99.90;;;;;;5047666;28;20082;-82
2023/06/30 03:29:07;;;;;;;5.70;1.50;;;11.80;99.90;;;;;;5034267;28;20045;-82
2023/06/30 03:31:33;;;;;;;4.68;1.38;;;11.70;99.90;;;;;;5028692;28;20132;-82
2023/06/30 03:33:59;;;;;;;5.70;1.42;;;11.70;99.90;;;;;;5044435;28;20017;-83
2023/06/30 03:36:24;;;;;;;2.13;1.05;;;11.70;99.90;;;;;;5045108;28;20575;-81
2023/06/30 03:38:50;;;;;;;3.85;1.42;;;11.70;99.90;;;;;;5048819;28;20082;-82
2023/06/30 03:41:16;;;;;;;5.47;1.40;;;11.70;99.90;;;;;;5030656;28;20033;-81
2023/06/30 03:43:41;;;;;;;5.25;2.00;;;11.70;99.90;;;;;;5026780;28;20025;-81
2023/06/30 03:46:09;;;;;;;6.25;1.40;;;11.70;99.90;;;;;;5028375;28;20030;-82
2023/06/30 03:48:35;;;;;;;2.75;1.30;;;11.70;99.90;;;;;;5026703;28;20664;-81
2023/06/30 03:51:00;;;;;;;4.18;1.27;;;11.80;99.90;;;;;;5026153;28;20037;-83
2023/06/30 03:53:26;;;;;;;4.00;1.60;;;11.80;99.90;;;;;;5039407;28;20062;-83
2023/06/30 03:55:52;;;;;;;6.57;1.38;;;11.80;99.90;;;;;;5043248;28;20554;-82
2023/06/30 03:58:17;;;;;;;4.60;1.42;;;11.80;99.90;;;;;;5048516;28;20106;-82
2023/06/30 04:00:43;;;;;;;2.83;1.40;;;11.80;99.90;;;;;;5047641;28;20120;-82
2023/06/30 04:03:09;;;;;;;4.68;1.30;;;11.80;99.90;;;;;;5048437;28;20040;-83
2023/06/30 04:05:34;;;;;;;3.28;1.40;;;11.90;99.90;;;;;;5046985;28;20048;-82
2023/06/30 04:08:00;;;;;;;5.22;1.40;;;11.90;99.90;;;;;;5046141;28;20072;-82
2023/06/30 04:10:25;;;;;;;2.80;1.20;;;12.00;99.90;;;;;;5046933;28;20056;-82
2023/06/30 04:12:51;;;;;;;4.97;1.20;;;12.00;99.90;;;;;;5047516;28;20025;-82
2023/06/30 04:15:16;;;;;;;3.45;1.27;;;12.00;99.90;;;;;;5047290;28;20076;-83
2023/06/30 04:17:42;;;;;;;6.93;1.13;;;12.10;99.90;;;;;;5047114;28;20032;-82
2023/06/30 04:20:11;;;;;;;3.70;1.42;;;12.10;99.90;;;;;;5035822;28;20139;-83
2023/06/30 04:22:37;;;;;;;6.97;1.40;;;12.20;99.90;;;;;;5027835;28;20033;-83
2023/06/30 04:25:04;;;;;;;2.15;1.20;;;12.20;99.90;;;;;;5039561;28;20032;-82
2023/06/30 04:27:30;;;;;;;2.50;1.05;;;12.30;99.90;;;;;;5039945;28;20055;-82
2023/06/30 04:29:55;;;;;;;3.78;1.27;;;12.30;99.90;;;;;;5041706;28;20061;-82
2023/06/30 04:32:21;;;;;;;3.20;1.00;;;12.30;99.90;;;;;;5046053;28;20095;-82
2023/06/30 04:34:47;;;;;;;5.60;1.10;;;12.40;99.90;;;;;;5046491;28;20104;-83
2023/06/30 04:37:13;;;;;;;5.68;1.40;;;12.40;99.90;;;;;;5047956;28;20124;-83
2023/06/30 04:39:39;;;;;;;2.08;1.10;;;12.50;99.90;;;;;;5045044;28;20057;-81
2023/06/30 04:42:04;;;;;;;4.72;1.42;;;12.50;99.90;;;;;;5035415;28;20067;-83
2023/06/30 04:44:30;;;;;;;2.28;1.13;;;12.60;99.90;;;;;;5045501;28;20110;-83
2023/06/30 04:46:56;;;;;;;3.10;1.27;;;12.60;99.90;;;;;;5048440;28;20432;-82
2023/06/30 04:49:22;;;;;;;4.00;1.63;;;12.70;99.90;;;;;;5038968;28;20025;-82
2023/06/30 04:51:48;;;;;;;4.95;1.13;;;12.70;99.90;;;;;;5046604;28;20099;-83
2023/06/30 04:54:13;;;;;;;5.45;0.95;;;12.80;99.90;;;;;;5047465;28;20542;-83
2023/06/30 04:56:39;;;;;;;3.17;1.05;;;12.80;99.90;;;;;;5047749;28;20029;-82
2023/06/30 04:59:05;;;;;;;3.17;0.98;;;12.90;99.90;;;;;;5046202;28;20060;-83
2023/06/30 05:01:32;;;;;;;4.20;1.17;;;12.90;99.90;;;;;;5045886;28;20029;-82
2023/06/30 05:03:58;;;;;;;4.55;1.20;;;13.00;99.90;;;;;;5033455;28;20025;-83
2023/06/30 05:06:24;;;;;;;3.35;1.05;;;13.10;99.90;;;;;;5028117;28;20065;-83
2023/06/30 05:08:50;;;;;;;3.67;1.00;;;13.20;99.90;;;;;;5048056;28;20025;-83
2023/06/30 05:11:15;;;;;;;3.00;1.00;;;13.20;99.90;;;;;;5039270;28;20048;-82
2023/06/30 05:13:41;;;;;;;2.15;0.93;;;13.40;99.90;;;;;;5033209;28;20032;-83
2023/06/30 05:16:07;;;;;;;2.83;1.40;;;13.50;99.90;;;;;;5047969;28;20032;-82
2023/06/30 05:18:32;;;;;;;4.57;1.30;;;13.70;99.90;;;;;;5046640;28;20033;-83
2023/06/30 05:20:58;;;;;;;2.58;1.23;;;13.90;99.90;;;;;;5047473;28;20048;-83
2023/06/30 05:23:23;;;;;;;4.43;1.38;;;14.00;99.90;;;;;;5046694;28;20033;-84
2023/06/30 05:25:49;;;;;;;3.35;0.80;;;14.10;99.90;;;;;;5047834;28;20025;-83
2023/06/30 05:28:15;;;;;;;4.32;1.20;;;14.20;99.90;;;;;;5060746;28;20025;-85
2023/06/30 05:30:41;;;;;;;2.90;1.10;;;14.30;99.90;;;;;;5033352;28;20133;-85
2023/06/30 05:33:06;;;;;;;5.35;0.93;;;14.50;99.90;;;;;;5048193;28;20112;-85
2023/06/30 05:35:32;;;;;;;2.30;1.10;;;14.60;99.90;;;;;;5037732;28;20120;-84
2023/06/30 05:37:59;;;;;;;4.07;1.30;;;14.70;99.90;;;;;;5049549;28;20016;-83
2023/06/30 05:40:25;;;;;;;2.58;0.95;;;14.90;99.90;;;;;;5045450;28;20033;-83
2023/06/30 05:42:51;;;;;;;2.72;1.00;;;15.10;99.90;;;;;;5045701;28;20045;-83
2023/06/30 05:45:17;;;;;;;3.28;1.10;;;15.20;99.90;;;;;;5047050;28;20028;-84
2023/06/30 05:47:42;;;;;;;5.32;0.80;;;15.30;99.90;;;;;;5047444;28;20475;-83
2023/06/30 05:50:08;;;;;;;2.30;0.88;;;15.40;99.90;;;;;;5047479;28;20076;-83
2023/06/30 05:52:34;;;;;;;3.63;1.30;;;15.50;99.90;;;;;;5046079;28;20041;-83
2023/06/30 05:54:59;;;;;;;2.45;0.88;;;15.60;99.90;;;;;;5042658;28;20027;-82
2023/06/30 05:57:26;;;;;;;3.67;0.90;;;15.70;99.90;;;;;;5045612;28;20025;-83
2023/06/30 05:59:52;;;;;;;5.65;1.00;;;15.80;99.90;;;;;;5040440;28;20034;-83
2023/06/30 06:02:18;;;;;;;4.13;1.10;;;15.90;99.90;;;;;;5040323;28;20020;-84
2023/06/30 06:04:43;;;;;;;2.70;0.93;;;15.90;99.90;;;;;;5041728;28;20485;-84
2023/06/30 06:07:09;;;;;;;414.48;196.75;;;16.10;99.90;;;;;;5044214;28;20480;-82
2023/06/30 06:09:35;;;;;;;51.25;24.67;;;16.10;99.90;;;;;;5026671;28;20029;-84
2023/06/30 06:12:02;;;;;;;3.13;1.60;;;16.20;99.90;;;;;;5039067;28;20504;-83
2023/06/30 06:14:27;;;;;;;3.83;1.30;;;16.20;99.90;;;;;;5046411;28;20097;-83
2023/06/30 06:16:53;;;;;;;3.83;1.05;;;16.40;99.90;;;;;;5046623;28;20028;-83
2023/06/30 06:19:20;;;;;;;2.10;0.88;;;16.40;99.90;;;;;;5045903;28;20032;-83
2023/06/30 06:21:46;;;;;;;4.03;0.90;;;16.50;99.90;;;;;;5046143;28;20105;-83
2023/06/30 06:24:13;;;;;;;2.28;0.95;;;16.70;99.90;;;;;;5046604;28;20037;-83
2023/06/30 06:26:39;;;;;;;58.90;29.35;;;16.80;99.90;;;;;;5041439;28;20025;-82
2023/06/30 06:29:04;;;;;;;22.45;10.73;;;17.00;99.90;;;;;;5043231;28;20036;-83
2023/06/30 06:31:30;;;;;;;3.22;1.27;;;17.10;99.90;;;;;;5043802;28;20474;-83
2023/06/30 06:33:55;;;;;;;1.35;1.00;;;17.10;99.90;;;;;;5053960;28;20473;-83
2023/06/30 06:36:21;;;;;;;4.78;0.90;;;17.20;99.90;;;;;;5034323;28;20037;-83
2023/06/30 06:38:47;;;;;;;5.20;1.02;;;17.30;99.90;;;;;;5042631;28;20417;-84
2023/06/30 06:41:13;;;;;;;2.00;0.80;;;17.30;99.90;;;;;;5039894;28;20044;-83
2023/06/30 06:43:38;;;;;;;192.45;100.07;;;17.40;99.90;;;;;;5045201;28;20060;-83
2023/06/30 06:46:04;;;;;;;30.67;17.08;;;17.60;99.90;;;;;;5044744;28;20029;-83
2023/06/30 06:48:29;;;;;;;5.60;2.30;;;17.80;99.90;;;;;;5045232;28;20144;-83
2023/06/30 06:50:57;;;;;;;4.47;0.90;;;17.90;99.90;;;;;;5040035;28;20039;-82
2023/06/30 06:53:26;;;;;;;3.53;1.10;;;18.00;99.90;;;;;;5054640;28;20504;-84
2023/06/30 06:55:53;;;;;;;6.07;1.02;;;18.10;99.90;;;;;;5036455;28;20056;-83
2023/06/30 06:58:19;;;;;;;2.83;1.02;;;18.10;99.90;;;;;;5048280;28;20044;-83
2023/06/30 07:00:46;;;;;;;3.80;0.95;;;18.20;99.90;;;;;;5049805;28;20029;-83
2023/06/30 07:03:12;;;;;;;2.92;0.77;;;18.30;99.90;;;;;;5053123;28;20036;-83
2023/06/30 07:05:41;;;;;;;6.72;1.25;;;18.40;99.90;;;;;;5040258;28;20049;-83
2023/06/30 07:08:07;;;;;;;2.75;0.93;;;18.40;99.90;;;;;;5040973;28;20028;-84
2023/06/30 07:10:33;;;;;;;2.92;0.75;;;18.60;99.90;;;;;;5047424;28;20049;-84
2023/06/30 07:12:59;;;;;;;1.75;0.60;;;18.80;99.90;;;;;;5061186;28;20031;-84
2023/06/30 07:15:25;;;;;;;2.90;0.80;;;19.00;99.90;;;;;;5046812;28;20033;-84
2023/06/30 07:17:51;;;;;;;1.88;0.90;;;19.30;99.90;;;;;;5035697;28;20028;-84
2023/06/30 07:20:16;;;;;;;3.25;0.88;;;19.70;99.90;;;;;;5043156;28;20112;-84
2023/06/30 07:22:42;;;;;;;3.35;0.90;;;19.90;99.90;;;;;;5035835;28;20025;-81
2023/06/30 07:25:08;;;;;;;3.35;0.95;;;20.10;99.90;;;;;;5047385;28;20036;-84
2023/06/30 07:27:37;;;;;;;1.65;0.60;;;20.20;99.80;;;;;;5037049;28;20029;-84
2023/06/30 07:30:03;;;;;;;5.78;1.00;;;20.40;97.70;;;;;;5041095;28;20124;-84
2023/06/30 07:32:31;;;;;;;2.53;0.60;;;20.90;99.70;;;;;;5042486;28;20029;-83
2023/06/30 07:34:56;;;;;;;2.40;0.82;;;21.60;94.40;;;;;;5035830;28;20036;-83
2023/06/30 07:37:22;;;;;;;2.72;0.75;;;23.00;93.80;;;;;;5046305;28;20108;-83
2023/06/30 07:39:47;;;;;;;2.40;0.60;;;24.90;77.90;;;;;;5034993;28;20041;-84
2023/06/30 07:42:14;;;;;;;2.47;0.52;;;26.00;67.80;;;;;;5037962;28;20029;-83
2023/06/30 07:44:40;;;;;;;2.22;0.77;;;26.10;63.60;;;;;;5047698;28;20009;-83
2023/06/30 07:47:05;;;;;;;6.32;0.80;;;26.20;65.30;;;;;;5047035;28;20025;-82
2023/06/30 07:49:31;;;;;;;4.25;0.73;;;26.10;63.30;;;;;;5037323;28;20102;-83
2023/06/30 07:51:57;;;;;;;2.25;0.70;;;26.10;60.30;;;;;;5047565;28;20105;-84
2023/06/30 07:54:22;;;;;;;2.13;0.60;;;26.70;62.90;;;;;;5039426;28;20029;-84
2023/06/30 07:56:48;;;;;;;2.50;0.60;;;27.80;58.50;;;;;;5042039;28;20032;-84
2023/06/30 07:59:14;;;;;;;3.33;0.50;;;29.00;55.90;;;;;;5044293;28;20040;-84
2023/06/30 08:01:39;;;;;;;4.38;0.90;;;30.30;52.50;;;;;;5042433;28;20029;-84
2023/06/30 08:04:05;;;;;;;2.30;0.70;;;31.00;47.80;;;;;;5042770;28;20033;-84
2023/06/30 08:06:31;;;;;;;2.45;0.68;;;31.60;48.00;;;;;;5043097;28;20045;-86
2023/06/30 08:08:56;;;;;;;3.25;0.68;;;32.40;45.70;;;;;;5047079;28;20029;-84
2023/06/30 08:11:22;;;;;;;3.20;0.70;;;33.30;45.20;;;;;;5053495;28;20041;-83
2023/06/30 08:13:47;;;;;;;2.03;0.68;;;34.30;40.90;;;;;;5047152;28;20083;-84
2023/06/30 08:16:14;;;;;;;4.10;0.60;;;34.80;42.00;;;;;;5047869;28;20044;-82
2023/06/30 08:18:40;;;;;;;4.03;0.68;;;35.60;40.40;;;;;;5048740;28;20025;-83
2023/06/30 08:21:06;;;;;;;3.03;0.75;;;34.60;37.60;;;;;;5046694;28;20051;-84
2023/06/30 08:23:31;;;;;;;3.10;0.80;;;33.70;39.40;;;;;;5047626;28;20505;-84
2023/06/30 08:25:57;;;;;;;5.07;0.95;;;32.40;41.00;;;;;;5048478;28;20165;-84
2023/06/30 08:28:23;;;;;;;4.68;1.00;;;31.50;41.90;;;;;;5041590;28;20040;-82
2023/06/30 08:30:49;;;;;;;3.13;1.00;;;30.70;43.90;;;;;;5048147;28;20123;-84
2023/06/30 08:33:16;;;;;;;3.53;0.90;;;30.30;45.00;;;;;;5047734;28;20049;-83
2023/06/30 08:35:41;;;;;;;2.63;0.80;;;30.00;47.30;;;;;;5046599;28;20028;-82
2023/06/30 08:38:07;;;;;;;1.45;0.60;;;30.00;47.90;;;;;;5040083;28;20102;-83
2023/06/30 08:40:33;;;;;;;2.88;0.82;;;29.70;46.30;;;;;;5040924;28;20642;-84
2023/06/30 08:42:59;;;;;;;4.18;0.85;;;29.10;47.90;;;;;;5031925;28;20507;-82
2023/06/30 08:45:28;;;;;;;5.57;1.05;;;28.90;49.30;;;;;;5051849;28;20354;-82
2023/06/30 08:48:02;;;;;;;3.65;0.90;;;28.60;50.50;;;;;;5046168;28;20481;-83
2023/06/30 08:50:28;;;;;;;3.00;1.05;;;28.30;51.10;;;;;;5043850;28;20045;-84
2023/06/30 08:52:55;;;;;;;4.93;0.90;;;28.00;52.70;;;;;;5043293;28;20560;-82
2023/06/30 08:55:21;;;;;;;2.83;0.88;;;27.40;54.70;;;;;;5043241;28;20037;-84
2023/06/30 08:57:47;;;;;;;5.07;0.98;;;27.00;59.10;;;;;;5041481;28;20033;-83
2023/06/30 09:00:14;;;;;;;4.75;1.08;;;25.90;59.40;;;;;;5036441;28;20025;-87
2023/06/30 09:02:40;;;;;;;4.45;1.08;;;25.50;60.80;;;;;;5040373;28;20025;-83
2023/06/30 09:05:07;;;;;;;5.18;1.10;;;24.80;62.10;;;;;;5044129;28;20112;-84
2023/06/30 09:07:40;;;;;;;6.22;0.80;;;25.20;62.10;;;;;;5049383;28;20151;-83
2023/06/30 09:10:09;;;;;;;4.07;0.85;;;25.10;60.80;;;;;;5032210;28;20029;-83
2023/06/30 09:12:36;;;;;;;6.18;0.90;;;25.80;62.90;;;;;;5044841;28;20037;-83
2023/06/30 09:15:02;;;;;;;3.42;0.93;;;26.60;59.80;;;;;;5060199;28;20385;-82
2023/06/30 09:17:29;;;;;;;5.07;0.80;;;26.90;60.50;;;;;;5045078;28;20033;-84
2023/06/30 09:19:54;;;;;;;1.67;0.60;;;27.30;65.00;;;;;;5042541;28;20036;-83
2023/06/30 09:22:20;;;;;;;2.92;0.65;;;27.60;63.30;;;;;;5039962;28;20037;-83
2023/06/30 09:24:47;;;;;;;2.85;0.80;;;27.50;60.50;;;;;;5042776;28;20021;-83
2023/06/30 09:27:13;;;;;;;4.40;0.93;;;27.10;62.00;;;;;;5048575;28;20342;-83
2023/06/30 09:29:39;;;;;;;3.78;0.75;;;27.00;58.30;;;;;;5064443;28;20563;-84
2023/06/30 09:32:05;;;;;;;2.17;0.70;;;27.60;57.80;;;;;;5057476;28;20037;-84
2023/06/30 09:34:31;;;;;;;2.92;0.98;;;28.30;56.10;;;;;;5040473;28;20151;-83
2023/06/30 09:36:57;;;;;;;4.20;0.95;;;27.80;55.10;;;;;;5030911;28;20039;-83
2023/06/30 09:39:23;;;;;;;6.32;0.85;;;27.80;57.10;;;;;;5037810;28;20120;-84
2023/06/30 09:41:51;;;;;;;4.85;0.80;;;27.80;53.60;;;;;;5032132;28;20047;-84
2023/06/30 09:44:20;;;;;;;3.88;0.85;;;27.90;57.80;;;;;;5044837;28;20561;-84
2023/06/30 09:46:54;;;;;;;4.78;0.98;;;28.10;57.60;;;;;;5041851;28;20025;-83
2023/06/30 09:49:34;;;;;;;3.95;0.85;;;27.30;57.60;;;;;;5033007;28;20048;-84
2023/06/30 09:52:03;;;;;;;4.05;0.90;;;27.20;62.50;;;;;;5040880;28;20040;-83
2023/06/30 09:54:30;;;;;;;4.13;1.13;;;27.20;59.10;;;;;;5037265;28;20029;-85
2023/06/30 09:57:05;;;;;;;5.90;0.95;;;27.70;59.70;;;;;;5035382;28;20029;-85
2023/06/30 09:59:31;;;;;;;5.60;0.98;;;28.80;55.90;;;;;;5035999;28;20021;-84
2023/06/30 10:01:57;;;;;;;5.97;1.17;;;28.50;55.40;;;;;;5034197;28;20507;-86
2023/06/30 10:04:25;;;;;;;3.67;0.88;;;29.40;57.90;;;;;;5039861;28;20033;-84
2023/06/30 10:06:52;;;;;;;3.13;0.70;;;31.30;54.50;;;;;;5029185;28;20041;-82
2023/06/30 10:09:23;;;;;;;6.55;0.98;;;31.60;50.60;;;;;;5041237;28;20178;-85
2023/06/30 10:11:53;;;;;;;5.18;1.00;;;34.10;47.00;;;;;;5041550;28;20124;-84
2023/06/30 10:14:28;;;;;;;4.03;0.90;;;35.10;44.60;;;;;;5038489;28;20040;-86
2023/06/30 10:16:57;;;;;;;2.95;0.70;;;34.80;42.60;;;;;;5027997;28;20033;-85
2023/06/30 10:19:24;;;;;;;6.18;0.90;;;33.70;46.00;;;;;;5040720;28;20895;-82
2023/06/30 10:21:49;;;;;;;3.53;1.02;;;33.20;47.10;;;;;;5038222;28;20518;-85
2023/06/30 10:24:19;;;;;;;3.25;0.90;;;33.30;46.70;;;;;;5039668;28;20029;-87
2023/06/30 10:26:47;;;;;;;5.30;1.05;;;33.00;45.40;;;;;;5042186;28;20024;-83
2023/06/30 10:29:13;;;;;;;3.17;1.20;;;31.00;47.30;;;;;;5039502;28;20136;-82
2023/06/30 10:31:41;;;;;;;4.40;1.05;;;29.50;51.60;;;;;;5044668;28;20040;-83
2023/06/30 10:34:07;;;;;;;6.63;1.20;;;27.00;56.80;;;;;;5042050;28;20044;-85
2023/06/30 10:36:33;;;;;;;3.35;1.15;;;25.70;58.30;;;;;;5052310;28;20053;-84
2023/06/30 10:39:00;;;;;;;3.65;1.17;;;25.10;67.40;;;;;;5037811;28;20032;-83
2023/06/30 10:41:25;;;;;;;7.25;1.25;;;25.50;82.10;;;;;;5045108;28;20036;-85
2023/06/30 10:44:00;;;;;;;4.65;1.00;;;26.00;64.90;;;;;;5038877;28;20036;-83
2023/06/30 10:46:46;;;;;;;5.85;1.15;;;26.00;66.30;;;;;;5040637;28;20029;-81
2023/06/30 10:49:20;;;;;;;6.60;1.05;;;25.10;72.30;;;;;;5038781;28;20040;-84
2023/06/30 10:51:48;;;;;;;5.68;1.10;;;24.60;77.60;;;;;;5047270;28;20078;-82
2023/06/30 10:54:24;;;;;;;5.25;1.30;;;24.40;82.60;;;;;;5048145;28;20033;-82
2023/06/30 10:56:51;;;;;;;6.40;1.52;;;24.10;85.60;;;;;;5046408;28;20128;-86
2023/06/30 10:59:23;;;;;;;7.93;1.60;;;23.60;87.20;;;;;;5044145;28;20125;-84
2023/06/30 11:02:12;;;;;;;6.22;1.20;;;22.80;91.90;;;;;;5046781;28;20029;-83
2023/06/30 11:04:40;;;;;;;7.75;1.33;;;22.60;95.40;;;;;;5043592;28;20041;-84
2023/06/30 11:07:07;;;;;;;8.05;1.48;;;22.30;96.80;;;;;;5046215;28;20706;-86
2023/06/30 11:09:48;;;;;;;8.10;1.35;;;22.50;95.40;;;;;;5046633;28;20122;-85
2023/06/30 11:12:23;;;;;;;6.40;1.45;;;22.70;96.80;;;;;;5029494;28;20045;-84
2023/06/30 11:14:59;;;;;;;8.73;1.70;;;22.90;96.50;;;;;;5042834;28;20055;-85
2023/06/30 11:17:26;;;;;;;4.88;1.15;;;22.80;96.00;;;;;;5043895;28;20044;-85
2023/06/30 11:20:07;;;;;;;7.32;1.58;;;22.80;95.10;;;;;;5048057;28;20017;-84
2023/06/30 11:22:33;;;;;;;9.25;1.45;;;22.60;98.00;;;;;;5043535;28;20037;-84
2023/06/30 11:25:04;;;;;;;9.35;1.48;;;23.30;98.60;;;;;;5048094;28;20118;-85
2023/06/30 11:27:30;;;;;;;6.30;1.50;;;24.00;94.60;;;;;;5038473;28;20034;-84
2023/06/30 11:29:59;;;;;;;7.00;1.25;;;23.80;94.30;;;;;;5041605;28;20033;-84
2023/06/30 11:32:29;;;;;;;6.07;1.50;;;23.80;95.10;;;;;;5047206;28;20033;-83
2023/06/30 11:34:56;;;;;;;11.60;1.88;;;23.50;95.80;;;;;;5044273;28;20076;-80
2023/06/30 11:37:22;;;;;;;10.80;2.03;;;22.70;96.70;;;;;;5043990;28;20032;-83
2023/06/30 11:39:55;;;;;;;5.28;1.45;;;21.90;99.90;;;;;;5039955;28;20029;-83
2023/06/30 11:42:22;;;;;;;7.00;1.33;;;21.10;99.90;;;;;;5039168;28;20040;-85
2023/06/30 11:44:51;;;;;;;13.10;1.70;;;20.50;99.90;;;;;;5029696;28;20049;-86
2023/06/30 11:47:18;;;;;;;8.43;1.90;;;20.10;99.90;;;;;;5031622;28;20033;-84
2023/06/30 11:49:45;;;;;;;6.50;1.70;;;19.90;99.90;;;;;;5048503;28;20114;-84
2023/06/30 11:52:11;;;;;;;9.32;1.75;;;19.60;99.90;;;;;;5063748;28;20029;-86
2023/06/30 11:54:37;;;;;;;8.55;1.63;;;19.70;99.90;;;;;;5062639;28;20032;-84
2023/06/30 11:57:04;;;;;;;11.20;1.88;;;20.00;99.90;;;;;;5028257;28;20055;-83
2023/06/30 11:59:32;;;;;;;12.77;1.95;;;20.00;99.90;;;;;;5037933;28;20021;-86
2023/06/30 12:02:00;;;;;;;9.88;2.05;;;20.10;99.90;;;;;;5028861;28;20044;-85
2023/06/30 12:04:34;;;;;;;7.85;1.75;;;20.30;99.90;;;;;;5029875;28;20515;-85
2023/06/30 12:07:05;;;;;;;11.23;1.48;;;20.50;99.90;;;;;;5028608;28;20068;-83
2023/06/30 12:09:31;;;;;;;8.52;1.42;;;20.40;99.90;;;;;;5028816;28;20017;-85
2023/06/30 12:11:58;;;;;;;7.47;1.65;;;20.20;99.90;;;;;;5033457;28;20845;-84
2023/06/30 12:14:25;;;;;;;9.27;1.77;;;19.90;99.90;;;;;;5048774;28;20048;-82
2023/06/30 12:16:53;;;;;;;7.85;1.92;;;19.60;99.90;;;;;;5049949;28;20063;-86
2023/06/30 12:19:27;;;;;;;10.50;1.67;;;19.20;99.90;;;;;;5050123;28;20791;-82
2023/06/30 12:22:00;;;;;;;11.18;1.85;;;19.10;99.90;;;;;;5048124;28;20029;-84
2023/06/30 12:24:34;;;;;;;9.30;1.63;;;19.10;99.90;;;;;;5043466;28;20021;-80
2023/06/30 12:27:03;;;;;;;8.57;1.77;;;19.00;99.90;;;;;;5029662;28;20021;-84
2023/06/30 12:29:30;;;;;;;8.75;1.70;;;18.80;99.90;;;;;;5028846;28;20120;-84
2023/06/30 12:31:56;;;;;;;10.05;2.10;;;18.70;99.90;;;;;;5030020;28;20397;-84
2023/06/30 12:34:31;;;;;;;6.93;1.90;;;18.60;99.90;;;;;;5028920;28;20433;-83
2023/06/30 12:36:57;;;;;;;10.80;2.35;;;18.40;99.90;;;;;;5051050;28;20037;-84
2023/06/30 12:39:23;;;;;;;13.35;2.33;;;18.10;99.90;;;;;;5034299;28;20025;-85
2023/06/30 12:41:49;;;;;;;7.88;1.98;;;17.90;99.90;;;;;;5049482;28;20044;-84
2023/06/30 12:44:14;;;;;;;10.20;2.10;;;18.00;99.90;;;;;;5064284;28;20029;-85